Time;durP1;ratioP1;P1;durP2;ratioP2;P2;SDS_P1;SDS_P2;PMS_P1;PMS_P2;Temp;Humidity;BMP_temperature;BMP_pressure;BME280_temperature;BME280_humidity;BME280_pressure;Samples;Min_cycle;Max_cycle;Signal;HPM_P1;HPM_P2
2021/10/17 00:01:40;;;;;;;69.00;30.80;;;;;;;7.96;79.23;100847.21;113130;1199;22458;-59
2021/10/17 00:04:11;;;;;;;70.50;30.50;;;;;;;7.95;79.23;100847.70;113108;1199;25036;-57
2021/10/17 00:06:42;;;;;;;63.60;29.30;;;;;;;7.94;79.24;100841.89;113104;1199;22745;-59
2021/10/17 00:09:14;;;;;;;58.10;27.00;;;;;;;7.93;79.45;100844.84;112901;1199;22436;-60
2021/10/17 00:11:45;;;;;;;64.20;29.10;;;;;;;7.93;79.42;100844.84;113211;1198;22432;-59
2021/10/17 00:14:16;;;;;;;60.70;28.10;;;;;;;7.94;79.42;100848.71;113120;1198;25038;-59
2021/10/17 00:16:50;;;;;;;64.10;29.00;;;;;;;7.93;79.48;100849.35;113135;1198;22750;-61
2021/10/17 00:19:21;;;;;;;64.50;29.30;;;;;;;7.91;79.30;100847.52;113088;1198;25113;-61
2021/10/17 00:21:52;;;;;;;65.60;28.80;;;;;;;7.90;79.46;100845.27;113388;1198;22453;-59
2021/10/17 00:24:23;;;;;;;56.70;26.20;;;;;;;7.90;79.55;100844.00;113083;1198;22401;-61
2021/10/17 00:26:54;;;;;;;55.50;24.20;;;;;;;7.89;79.46;100843.92;113061;1197;22430;-60
2021/10/17 00:29:28;;;;;;;58.90;25.50;;;;;;;7.88;79.45;100844.85;113154;1198;25079;-56
2021/10/17 00:32:00;;;;;;;57.00;26.70;;;;;;;7.87;79.49;100841.13;113103;1199;22427;-59
2021/10/17 00:34:31;;;;;;;63.80;26.20;;;;;;;7.87;79.44;100842.02;113107;1199;22430;-58
2021/10/17 00:37:03;;;;;;;56.50;24.20;;;;;;;7.87;79.58;100838.77;113061;1198;22442;-58
2021/10/17 00:39:35;;;;;;;52.70;24.40;;;;;;;7.86;79.59;100836.66;113038;1199;22466;-60
2021/10/17 00:42:07;;;;;;;53.30;24.10;;;;;;;7.85;79.70;100837.29;113105;1185;23785;-59
2021/10/17 00:44:41;;;;;;;57.60;23.80;;;;;;;7.85;79.66;100838.10;113338;1193;22448;-58
2021/10/17 00:47:12;;;;;;;56.70;22.20;;;;;;;7.84;79.72;100833.77;113231;1197;25088;-60
2021/10/17 00:49:43;;;;;;;56.90;24.90;;;;;;;7.82;79.81;100838.28;113070;1198;23817;-60
2021/10/17 00:52:14;;;;;;;56.60;23.60;;;;;;;7.81;79.77;100839.67;113031;1199;22464;-61
2021/10/17 00:54:46;;;;;;;53.60;23.90;;;;;;;7.80;79.71;100839.21;112989;1195;22451;-59
2021/10/17 00:57:18;;;;;;;54.60;23.70;;;;;;;7.80;80.02;100838.81;113060;1193;22549;-59
2021/10/17 00:59:50;;;;;;;58.70;24.30;;;;;;;7.80;80.00;100833.54;113165;1193;25074;-61
2021/10/17 01:02:21;;;;;;;54.40;23.60;;;;;;;7.78;80.03;100834.84;113159;1198;24129;-60
2021/10/17 01:04:52;;;;;;;58.20;23.90;;;;;;;7.77;79.97;100835.04;113214;1198;22784;-57
2021/10/17 01:07:24;;;;;;;54.50;22.70;;;;;;;7.75;80.16;100840.18;113075;1193;26235;-60
2021/10/17 01:09:55;;;;;;;57.30;24.00;;;;;;;7.74;80.32;100832.60;113305;1190;22441;-58
2021/10/17 01:12:26;;;;;;;54.80;24.00;;;;;;;7.73;80.27;100831.27;113179;1198;25066;-57
2021/10/17 01:14:57;;;;;;;58.40;24.70;;;;;;;7.70;80.40;100833.44;113104;1198;25093;-60
2021/10/17 01:17:28;;;;;;;56.00;24.90;;;;;;;7.69;80.44;100828.77;113036;1199;24010;-59
2021/10/17 01:19:59;;;;;;;54.20;24.30;;;;;;;7.70;80.61;100825.41;113150;1197;22546;-58
2021/10/17 01:22:32;;;;;;;61.20;23.70;;;;;;;7.70;80.53;100822.23;113044;1199;22775;-60
2021/10/17 01:25:03;;;;;;;51.00;23.80;;;;;;;7.70;80.56;100818.49;112977;1199;22473;-58
2021/10/17 01:27:34;;;;;;;55.10;23.40;;;;;;;7.69;80.58;100815.59;113156;1198;22770;-60
2021/10/17 01:30:07;;;;;;;53.70;24.80;;;;;;;7.70;80.67;100814.86;113206;1193;22504;-61
2021/10/17 01:32:38;;;;;;;55.50;24.90;;;;;;;7.70;80.69;100814.23;113328;1197;22457;-60
2021/10/17 01:35:10;;;;;;;59.70;25.90;;;;;;;7.68;80.66;100814.91;113139;1198;25051;-59
2021/10/17 01:37:42;;;;;;;60.10;26.50;;;;;;;7.69;80.76;100811.33;113268;1198;25890;-58
2021/10/17 01:40:14;;;;;;;59.40;25.30;;;;;;;7.69;80.74;100807.48;113218;1196;25104;-58
2021/10/17 01:42:46;;;;;;;58.30;24.10;;;;;;;7.70;80.64;100807.86;113207;1197;25124;-59
2021/10/17 01:45:18;;;;;;;56.50;24.10;;;;;;;7.70;80.68;100802.69;113045;1193;24104;-56
2021/10/17 01:47:50;;;;;;;54.40;25.20;;;;;;;7.70;80.78;100801.42;113122;1198;22730;-57
2021/10/17 01:50:22;;;;;;;56.60;23.70;;;;;;;7.71;80.88;100802.67;113210;1198;25037;-62
2021/10/17 01:52:54;;;;;;;56.00;22.60;;;;;;;7.72;80.73;100800.58;113133;1192;22475;-59
2021/10/17 01:55:26;;;;;;;54.90;22.90;;;;;;;7.71;80.83;100797.27;113094;1198;23599;-59
2021/10/17 01:57:57;;;;;;;55.10;23.70;;;;;;;7.69;80.86;100797.24;113204;1199;22576;-59
2021/10/17 02:00:28;;;;;;;50.80;23.80;;;;;;;7.69;80.92;100793.93;113080;1193;25117;-59
2021/10/17 02:02:59;;;;;;;54.60;23.00;;;;;;;7.69;80.92;100787.36;113125;1198;24129;-58
2021/10/17 02:05:31;;;;;;;61.80;25.80;;;;;;;7.66;81.07;100788.30;113124;1193;24155;-58
2021/10/17 02:08:02;;;;;;;59.50;23.90;;;;;;;7.66;81.03;100790.69;113043;1184;22610;-58
2021/10/17 02:10:33;;;;;;;59.20;24.50;;;;;;;7.65;81.01;100787.29;113080;1198;22502;-60
2021/10/17 02:13:06;;;;;;;50.60;24.30;;;;;;;7.66;81.11;100793.16;113221;1199;24176;-60
2021/10/17 02:15:37;;;;;;;56.10;24.70;;;;;;;7.63;81.01;100787.36;113246;1198;22991;-60
2021/10/17 02:18:07;;;;;;;54.40;23.80;;;;;;;7.63;81.04;100789.67;113089;1192;25130;-59
2021/10/17 02:20:38;;;;;;;56.80;24.90;;;;;;;7.64;81.06;100789.80;113037;1193;25123;-60
2021/10/17 02:23:10;;;;;;;54.30;25.00;;;;;;;7.66;81.19;100788.38;113140;1198;24134;-61
2021/10/17 02:25:41;;;;;;;58.00;25.90;;;;;;;7.68;81.17;100782.61;113273;1198;24731;-59
2021/10/17 02:28:12;;;;;;;54.90;24.00;;;;;;;7.68;81.18;100783.33;113185;1198;22603;-58
2021/10/17 02:30:43;;;;;;;58.70;24.20;;;;;;;7.68;81.15;100778.70;113233;1198;25799;-58
2021/10/17 02:33:14;;;;;;;54.70;24.10;;;;;;;7.65;81.16;100788.80;113154;1198;24108;-60
2021/10/17 02:35:45;;;;;;;55.00;23.30;;;;;;;7.63;81.27;100780.30;113198;1198;22457;-58
2021/10/17 02:38:16;;;;;;;57.10;24.40;;;;;;;7.64;81.39;100775.42;113421;1198;23883;-60
2021/10/17 02:40:47;;;;;;;53.90;23.70;;;;;;;7.65;81.35;100780.06;113046;1184;22447;-58
2021/10/17 02:43:18;;;;;;;50.80;22.00;;;;;;;7.65;81.25;100776.11;113219;1198;22469;-59
2021/10/17 02:45:49;;;;;;;53.90;23.50;;;;;;;7.66;81.39;100777.20;113197;1198;25092;-61
2021/10/17 02:48:23;;;;;;;54.80;22.40;;;;;;;7.66;81.31;100771.64;113478;1198;24988;-60
2021/10/17 02:50:53;;;;;;;53.00;22.20;;;;;;;7.66;81.43;100767.80;113274;1196;24020;-59
2021/10/17 02:53:24;;;;;;;50.90;21.60;;;;;;;7.66;81.38;100768.15;113173;1193;23459;-60
2021/10/17 02:55:56;;;;;;;51.70;23.10;;;;;;;7.66;81.52;100767.56;113171;1198;22708;-60
2021/10/17 02:58:26;;;;;;;54.10;23.90;;;;;;;7.67;81.48;100769.06;113161;1199;22441;-61
2021/10/17 03:00:57;;;;;;;52.30;23.10;;;;;;;7.67;81.40;100764.30;113188;1198;22517;-59
2021/10/17 03:03:28;;;;;;;52.50;24.10;;;;;;;7.66;81.34;100762.19;113472;1193;22588;-61
2021/10/17 03:05:59;;;;;;;49.30;22.70;;;;;;;7.66;81.51;100766.33;113102;1192;24053;-59
2021/10/17 03:08:30;;;;;;;57.00;23.50;;;;;;;7.65;81.56;100763.27;113141;1199;22418;-59
2021/10/17 03:11:01;;;;;;;51.30;22.40;;;;;;;7.65;81.54;100766.83;113004;1199;22939;-58
2021/10/17 03:13:32;;;;;;;49.70;22.20;;;;;;;7.65;81.60;100771.20;113235;1192;22437;-58
2021/10/17 03:16:04;;;;;;;54.40;21.90;;;;;;;7.65;81.66;100770.95;113208;1198;22465;-60
2021/10/17 03:18:35;;;;;;;52.60;22.20;;;;;;;7.66;81.52;100771.64;113265;1198;22463;-59
2021/10/17 03:21:07;;;;;;;42.90;19.20;;;;;;;7.66;81.54;100769.27;113159;1198;22621;-58
2021/10/17 03:23:38;;;;;;;46.50;20.20;;;;;;;7.66;81.57;100774.25;113096;1193;26279;-58
2021/10/17 03:26:08;;;;;;;50.10;20.80;;;;;;;7.66;81.62;100773.37;113248;1198;25028;-59
2021/10/17 03:28:39;;;;;;;43.50;19.80;;;;;;;7.66;81.53;100771.45;113152;1198;22776;-60
2021/10/17 03:31:10;;;;;;;45.10;19.80;;;;;;;7.66;81.60;100769.17;113198;1198;25092;-58
2021/10/17 03:33:41;;;;;;;49.70;20.80;;;;;;;7.66;81.70;100774.66;113256;1199;25819;-59
2021/10/17 03:36:12;;;;;;;50.40;22.90;;;;;;;7.62;81.53;100780.02;113172;1193;22419;-60
2021/10/17 03:38:44;;;;;;;46.20;19.40;;;;;;;7.60;81.50;100775.57;113182;1193;22598;-59
2021/10/17 03:41:15;;;;;;;45.40;20.80;;;;;;;7.59;81.62;100782.74;113149;1198;24060;-58
2021/10/17 03:43:46;;;;;;;50.00;21.10;;;;;;;7.58;81.55;100782.68;113214;1198;22417;-60
2021/10/17 03:46:19;;;;;;;40.60;18.90;;;;;;;7.58;81.54;100780.61;113108;1193;22967;-59
2021/10/17 03:48:50;;;;;;;52.60;19.30;;;;;;;7.57;81.54;100782.88;113152;1198;25946;-58
2021/10/17 03:51:21;;;;;;;47.60;20.90;;;;;;;7.58;81.57;100783.50;113076;1199;22442;-61
2021/10/17 03:53:52;;;;;;;48.00;19.90;;;;;;;7.58;81.60;100783.79;113198;1198;23001;-60
2021/10/17 03:56:24;;;;;;;43.20;19.20;;;;;;;7.60;81.72;100776.51;113236;1193;24097;-59
2021/10/17 03:58:55;;;;;;;47.50;20.30;;;;;;;7.62;81.78;100778.36;113357;1198;22898;-59
2021/10/17 04:01:26;;;;;;;44.60;18.80;;;;;;;7.60;81.64;100775.31;113191;1176;22450;-58
2021/10/17 04:03:57;;;;;;;48.90;20.40;;;;;;;7.61;81.78;100770.94;113325;1198;22556;-61
2021/10/17 04:06:27;;;;;;;46.60;19.30;;;;;;;7.61;81.78;100765.30;113195;1198;22436;-58
2021/10/17 04:08:58;;;;;;;42.00;18.80;;;;;;;7.61;81.85;100765.29;113166;1199;22442;-58
2021/10/17 04:11:30;;;;;;;45.00;20.90;;;;;;;7.60;81.93;100767.95;113182;1192;22437;-60
2021/10/17 04:14:01;;;;;;;48.20;19.60;;;;;;;7.59;81.97;100768.45;113330;1199;24016;-61
2021/10/17 04:16:32;;;;;;;47.40;20.10;;;;;;;7.58;82.01;100767.52;113163;1198;22460;-59
2021/10/17 04:19:03;;;;;;;48.20;22.90;;;;;;;7.56;82.06;100772.12;113229;1198;22426;-58
2021/10/17 04:21:34;;;;;;;49.70;21.70;;;;;;;7.56;81.94;100770.69;113304;1198;25110;-58
2021/10/17 04:24:07;;;;;;;44.40;19.80;;;;;;;7.55;82.04;100764.61;113183;1192;22419;-60
2021/10/17 04:26:38;;;;;;;47.70;20.10;;;;;;;7.56;82.10;100763.54;113341;1183;22895;-60
2021/10/17 04:29:09;;;;;;;46.90;22.40;;;;;;;7.57;82.16;100760.73;113368;1198;24276;-60
2021/10/17 04:31:40;;;;;;;50.60;22.10;;;;;;;7.57;82.17;100763.14;113103;1198;25389;-60
2021/10/17 04:34:11;;;;;;;48.50;22.90;;;;;;;7.57;82.05;100761.64;113186;1199;22440;-60
2021/10/17 04:36:42;;;;;;;46.90;20.70;;;;;;;7.58;82.16;100765.47;113121;1199;22620;-59
2021/10/17 04:39:12;;;;;;;43.50;19.90;;;;;;;7.58;82.06;100763.16;113077;1198;24118;-58
2021/10/17 04:41:43;;;;;;;48.40;21.10;;;;;;;7.58;82.18;100764.58;113122;1198;24158;-61
2021/10/17 04:44:14;;;;;;;48.60;21.60;;;;;;;7.58;82.19;100762.60;113187;1198;25113;-58
2021/10/17 04:46:46;;;;;;;44.10;20.50;;;;;;;7.58;82.28;100760.23;113183;1198;24049;-58
2021/10/17 04:49:17;;;;;;;43.90;20.40;;;;;;;7.56;82.15;100767.59;113150;1190;22455;-59
2021/10/17 04:51:48;;;;;;;52.30;22.30;;;;;;;7.53;82.24;100766.89;113171;1198;22458;-60
2021/10/17 04:54:19;;;;;;;49.80;21.70;;;;;;;7.51;82.32;100763.41;113153;1198;22559;-59
2021/10/17 04:56:51;;;;;;;50.30;23.00;;;;;;;7.50;82.34;100757.55;113246;1197;25092;-58
2021/10/17 04:59:22;;;;;;;46.80;20.20;;;;;;;7.51;82.40;100755.45;113162;1198;22443;-60
2021/10/17 05:01:53;;;;;;;44.80;20.90;;;;;;;7.51;82.42;100754.09;113131;1198;22437;-58
2021/10/17 05:04:24;;;;;;;45.80;20.00;;;;;;;7.51;82.37;100758.23;113363;1198;22490;-60
2021/10/17 05:06:55;;;;;;;42.20;18.60;;;;;;;7.50;82.44;100756.20;113168;1199;25326;-58
2021/10/17 05:09:26;;;;;;;44.20;19.90;;;;;;;7.51;82.42;100752.61;113198;1198;22449;-59
2021/10/17 05:11:57;;;;;;;48.30;21.20;;;;;;;7.50;82.46;100753.75;113016;1198;24149;-58
2021/10/17 05:14:28;;;;;;;50.80;21.30;;;;;;;7.48;82.45;100750.54;113088;1198;24111;-60
2021/10/17 05:17:00;;;;;;;45.20;20.80;;;;;;;7.48;82.56;100750.32;113057;1184;24095;-59
2021/10/17 05:19:31;;;;;;;47.10;20.50;;;;;;;7.46;82.53;100751.25;113134;1192;22438;-59
2021/10/17 05:22:01;;;;;;;47.70;20.40;;;;;;;7.45;82.55;100753.13;113256;1199;22443;-59
2021/10/17 05:24:33;;;;;;;46.60;19.00;;;;;;;7.44;82.57;100753.05;113152;1199;22453;-59
2021/10/17 05:27:04;;;;;;;42.30;19.20;;;;;;;7.44;82.58;100754.08;113998;1170;25651;-58
2021/10/17 05:29:34;;;;;;;39.70;16.90;;;;;;;7.46;82.58;100756.64;113503;1197;22417;-58
2021/10/17 05:32:06;;;;;;;47.00;19.50;;;;;;;7.47;82.57;100756.20;113390;1197;23817;-57
2021/10/17 05:34:37;;;;;;;42.90;19.20;;;;;;;7.49;82.58;100755.77;117292;1197;22274;-59
2021/10/17 05:37:08;;;;;;;53.50;23.30;;;;;;;7.50;82.63;100760.80;115699;1197;22763;-59
2021/10/17 05:39:39;;;;;;;50.00;21.20;;;;;;;7.50;82.53;100765.33;113277;1197;24408;-60
2021/10/17 05:42:10;;;;;;;54.30;23.60;;;;;;;7.52;82.48;100768.52;113301;1197;25125;-58
2021/10/17 05:44:41;;;;;;;48.40;20.90;;;;;;;7.55;82.60;100771.77;113538;1198;22423;-58
2021/10/17 05:47:12;;;;;;;49.80;20.20;;;;;;;7.57;82.66;100772.46;113428;1197;22623;-58
2021/10/17 05:49:43;;;;;;;49.60;20.20;;;;;;;7.60;82.60;100774.69;113427;1190;23663;-58
2021/10/17 05:52:14;;;;;;;47.50;19.30;;;;;;;7.62;82.70;100771.93;113392;1198;24081;-59
2021/10/17 05:54:45;;;;;;;46.00;20.20;;;;;;;7.63;82.71;100772.47;113282;1198;24000;-60
2021/10/17 05:57:15;;;;;;;43.20;20.30;;;;;;;7.62;82.62;100774.54;113376;1198;25941;-59
2021/10/17 05:59:46;;;;;;;46.60;19.70;;;;;;;7.63;82.71;100774.20;113556;1198;22531;-57
2021/10/17 06:02:18;;;;;;;44.80;17.70;;;;;;;7.64;82.90;100771.23;113363;1198;22899;-60
2021/10/17 06:04:51;;;;;;;43.60;17.10;;;;;;;7.66;83.00;100769.33;113621;1197;22436;-59
2021/10/17 06:07:22;;;;;;;40.10;17.80;;;;;;;7.67;82.81;100771.35;114508;1197;25228;-61
2021/10/17 06:09:54;;;;;;;40.20;16.80;;;;;;;7.69;82.79;100770.90;113989;1197;25063;-59
2021/10/17 06:12:24;;;;;;;44.70;18.40;;;;;;;7.72;82.77;100769.29;113548;1198;22419;-60
2021/10/17 06:14:55;;;;;;;41.10;16.70;;;;;;;7.75;82.75;100769.84;113642;1197;23402;-60
2021/10/17 06:17:26;;;;;;;37.70;15.70;;;;;;;7.78;82.63;100773.63;113577;1197;23078;-61
2021/10/17 06:19:58;;;;;;;36.60;15.20;;;;;;;7.79;82.42;100770.02;113642;1190;22411;-60
2021/10/17 06:22:29;;;;;;;44.70;18.40;;;;;;;7.80;82.61;100769.98;113606;1197;22594;-59
2021/10/17 06:25:00;;;;;;;41.70;19.20;;;;;;;7.82;82.52;100769.69;113865;1197;22443;-58
2021/10/17 06:27:31;;;;;;;43.50;18.50;;;;;;;7.83;82.53;100772.17;113740;1197;22426;-58
2021/10/17 06:30:02;;;;;;;41.30;16.60;;;;;;;7.84;82.37;100774.58;113598;1190;25633;-60
2021/10/17 06:32:33;;;;;;;39.10;16.60;;;;;;;7.86;82.27;100777.14;113504;1197;25223;-60
2021/10/17 06:35:04;;;;;;;32.90;13.10;;;;;;;7.89;82.30;100780.39;113372;1197;22437;-59
2021/10/17 06:37:36;;;;;;;31.50;12.70;;;;;;;7.92;82.46;100779.65;113470;1197;23763;-59
2021/10/17 06:40:08;;;;;;;30.50;12.70;;;;;;;7.93;82.26;100780.80;113558;1190;23820;-59
2021/10/17 06:42:39;;;;;;;46.90;20.90;;;;;;;7.94;82.09;100782.36;113735;1197;22439;-61
2021/10/17 06:45:11;;;;;;;49.60;25.00;;;;;;;7.96;82.21;100781.10;113527;1197;25225;-60
2021/10/17 06:47:42;;;;;;;45.70;20.20;;;;;;;7.99;82.23;100780.30;113457;1190;24050;-57
2021/10/17 06:50:14;;;;;;;34.80;15.60;;;;;;;8.01;81.86;100777.20;113561;1190;22447;-58
2021/10/17 06:52:44;;;;;;;32.70;13.10;;;;;;;8.04;81.79;100782.34;113578;1197;22436;-58
2021/10/17 06:55:16;;;;;;;29.10;10.90;;;;;;;8.08;81.74;100787.45;113492;1197;24060;-61
2021/10/17 06:57:48;;;;;;;28.70;10.80;;;;;;;8.11;81.53;100789.91;113877;1197;22559;-60
2021/10/17 07:00:20;;;;;;;26.00;10.50;;;;;;;8.13;81.50;100786.56;113606;1190;22437;-62
2021/10/17 07:02:52;;;;;;;31.00;11.10;;;;;;;8.16;81.37;100796.33;113501;1197;22459;-59
2021/10/17 07:05:24;;;;;;;23.70;9.60;;;;;;;8.20;81.34;100795.46;113659;1197;24050;-59
2021/10/17 07:07:56;;;;;;;33.80;11.50;;;;;;;8.25;81.49;100790.80;113868;1197;22424;-58
2021/10/17 07:10:27;;;;;;;27.10;9.90;;;;;;;8.29;81.12;100794.95;113560;1197;22438;-59
2021/10/17 07:12:59;;;;;;;27.80;9.70;;;;;;;8.33;81.08;100799.13;113860;1197;22424;-58
2021/10/17 07:15:30;;;;;;;32.10;10.50;;;;;;;8.37;81.10;100802.88;113779;1183;22939;-61
2021/10/17 07:18:02;;;;;;;26.10;8.90;;;;;;;8.41;80.97;100801.60;113693;1193;22440;-60
2021/10/17 07:20:34;;;;;;;29.50;8.90;;;;;;;8.45;80.87;100801.79;113596;1190;25332;-60
2021/10/17 07:23:05;;;;;;;24.50;9.70;;;;;;;8.49;80.90;100799.48;113659;1197;22498;-61
2021/10/17 07:25:36;;;;;;;26.40;9.70;;;;;;;8.55;80.73;100799.35;113623;1190;25151;-59
2021/10/17 07:28:08;;;;;;;24.20;8.70;;;;;;;8.60;80.57;100802.92;113489;1197;23321;-61
2021/10/17 07:30:39;;;;;;;21.40;8.30;;;;;;;8.64;80.22;100806.83;113758;1197;22567;-61
2021/10/17 07:33:10;;;;;;;24.70;9.40;;;;;;;8.67;80.01;100811.27;113689;1183;23521;-59
2021/10/17 07:35:41;;;;;;;28.20;9.30;;;;;;;8.70;80.16;100807.33;113617;1197;22477;-61
2021/10/17 07:38:12;;;;;;;27.30;9.40;;;;;;;8.75;80.12;100803.89;113466;1197;26305;-61
2021/10/17 07:40:44;;;;;;;25.90;9.60;;;;;;;8.78;80.04;100802.95;113452;1190;22436;-60
2021/10/17 07:43:15;;;;;;;23.30;8.60;;;;;;;8.82;80.10;100797.48;113627;1197;22439;-61
2021/10/17 07:45:46;;;;;;;30.50;11.40;;;;;;;8.87;80.01;100803.52;113530;1190;22492;-59
2021/10/17 07:48:17;;;;;;;26.00;9.80;;;;;;;8.92;79.95;100801.98;113456;1193;22440;-61
2021/10/17 07:50:48;;;;;;;27.80;9.80;;;;;;;8.97;80.02;100797.80;113473;1190;22606;-60
2021/10/17 07:53:19;;;;;;;23.90;8.50;;;;;;;9.04;79.79;100798.05;113252;1190;22454;-59
2021/10/17 07:55:50;;;;;;;21.80;8.00;;;;;;;9.09;79.72;100796.10;113445;1197;22734;-60
2021/10/17 07:58:21;;;;;;;19.70;7.50;;;;;;;9.14;79.65;100798.36;113454;1190;22456;-60
2021/10/17 08:00:53;;;;;;;24.00;8.40;;;;;;;9.19;79.39;100799.04;113588;1197;22538;-60
2021/10/17 08:03:24;;;;;;;21.10;8.30;;;;;;;9.23;79.28;100801.21;113428;1197;24996;-60
2021/10/17 08:05:56;;;;;;;25.60;9.10;;;;;;;9.28;79.08;100796.90;113333;1197;22480;-62
2021/10/17 08:08:27;;;;;;;24.90;8.20;;;;;;;9.33;78.90;100796.52;113456;1197;22434;-62
2021/10/17 08:10:58;;;;;;;20.50;8.60;;;;;;;9.38;78.98;100797.61;113341;1197;22415;-59
2021/10/17 08:13:30;;;;;;;22.20;8.80;;;;;;;9.42;78.76;100802.47;113298;1197;22488;-60
2021/10/17 08:16:01;;;;;;;27.40;10.00;;;;;;;9.46;78.63;100803.42;113409;1197;22438;-61
2021/10/17 08:18:32;;;;;;;26.40;9.10;;;;;;;9.50;78.41;100805.40;113410;1197;26259;-60
2021/10/17 08:21:03;;;;;;;22.00;8.20;;;;;;;9.54;78.44;100800.54;113258;1197;24200;-59
2021/10/17 08:23:34;;;;;;;21.10;8.30;;;;;;;9.58;78.06;100805.95;113556;1197;22438;-61
2021/10/17 08:26:06;;;;;;;22.40;8.30;;;;;;;9.62;78.14;100806.98;113279;1197;23076;-60
2021/10/17 08:28:37;;;;;;;27.20;7.60;;;;;;;9.66;77.97;100806.76;113427;1197;24081;-61
2021/10/17 08:31:08;;;;;;;22.00;7.00;;;;;;;9.71;78.01;100811.01;113325;1197;22738;-62
2021/10/17 08:33:39;;;;;;;19.60;6.90;;;;;;;9.76;77.80;100808.71;113333;1197;25125;-59
2021/10/17 08:36:11;;;;;;;16.80;6.40;;;;;;;9.83;77.44;100809.44;113402;1197;22538;-60
2021/10/17 08:38:42;;;;;;;21.10;7.50;;;;;;;9.88;77.33;100806.33;113382;1197;26468;-62
2021/10/17 08:41:15;;;;;;;20.40;6.30;;;;;;;9.94;77.24;100805.94;113308;1197;22435;-65
2021/10/17 08:43:47;;;;;;;20.30;6.70;;;;;;;10.00;77.19;100802.57;113314;1197;22456;-63
2021/10/17 08:46:20;;;;;;;22.70;6.90;;;;;;;10.06;76.97;100808.23;113177;1190;22452;-66
2021/10/17 08:48:57;;;;;;;21.90;7.30;;;;;;;10.12;77.03;100806.79;113413;1197;26220;-63
2021/10/17 08:51:29;;;;;;;20.30;6.60;;;;;;;10.18;76.81;100806.08;113258;1197;22438;-65
2021/10/17 08:54:00;;;;;;;18.70;5.50;;;;;;;10.23;76.65;100801.86;113470;1197;22431;-60
2021/10/17 08:56:32;;;;;;;22.80;7.10;;;;;;;10.28;76.07;100801.06;113588;1197;22443;-62
2021/10/17 08:59:04;;;;;;;21.10;7.60;;;;;;;10.33;75.91;100799.59;113568;1197;22727;-60
2021/10/17 09:01:39;;;;;;;24.90;7.60;;;;;;;10.39;75.98;100797.76;113268;1193;22529;-62
2021/10/17 09:04:11;;;;;;;20.00;6.00;;;;;;;10.45;75.54;100796.45;113548;1197;22523;-62
2021/10/17 09:06:44;;;;;;;29.50;7.60;;;;;;;10.49;75.32;100800.55;113753;1190;22663;-62
2021/10/17 09:09:17;;;;;;;23.40;7.40;;;;;;;10.54;74.98;100803.54;113351;1197;22431;-61
2021/10/17 09:11:50;;;;;;;20.20;6.90;;;;;;;10.59;75.13;100802.45;113263;1190;22432;-58
2021/10/17 09:14:23;;;;;;;20.90;6.00;;;;;;;10.64;74.52;100798.20;113245;1190;25136;-60
2021/10/17 09:16:57;;;;;;;20.70;5.90;;;;;;;10.68;74.34;100799.19;113254;1190;25013;-61
2021/10/17 09:19:30;;;;;;;20.10;6.10;;;;;;;10.73;74.40;100801.56;113596;1197;24115;-60
2021/10/17 09:22:06;;;;;;;15.90;4.80;;;;;;;10.79;74.02;100801.97;113239;1197;22465;-62
2021/10/17 09:24:40;;;;;;;22.00;5.30;;;;;;;10.85;73.71;100802.73;113441;1197;25668;-62
2021/10/17 09:27:14;;;;;;;13.40;3.70;;;;;;;10.91;73.07;100808.04;113310;1197;22435;-60
2021/10/17 09:29:49;;;;;;;17.70;4.10;;;;;;;10.96;72.56;100809.55;113252;1197;22440;-62
2021/10/17 09:32:22;;;;;;;16.50;3.70;;;;;;;11.01;71.99;100807.68;113334;1197;22422;-61
2021/10/17 09:34:58;;;;;;;11.00;3.20;;;;;;;11.05;71.61;100808.86;113376;1197;23221;-62
2021/10/17 09:37:34;;;;;;;14.40;3.60;;;;;;;11.09;71.87;100810.51;113378;1190;22462;-62
2021/10/17 09:40:10;;;;;;;18.60;3.10;;;;;;;11.14;71.62;100809.80;116388;1197;22531;-61
2021/10/17 09:42:41;;;;;;;10.70;2.70;;;;;;;11.17;70.99;100809.79;113449;1197;22435;-62
2021/10/17 09:45:26;;;;;;;9.30;2.50;;;;;;;11.22;71.03;100807.42;113336;1197;22412;-66
2021/10/17 09:47:57;;;;;;;12.80;3.20;;;;;;;11.27;70.76;100810.55;113166;1197;24208;-62
2021/10/17 09:50:27;;;;;;;9.80;2.40;;;;;;;11.32;70.46;100807.02;114308;1183;24081;-62
2021/10/17 09:53:08;;;;;;;24.60;6.40;;;;;;;11.37;70.25;100808.55;113402;1197;22466;-61
2021/10/17 09:55:37;;;;;;;;;;;;;;;11.37;70.61;100801.19;113554;1190;22415;-61
2021/10/17 09:58:08;;;;;;;14.40;5.00;;;;;;;11.36;70.94;100801.81;113410;1190;22748;-61
2021/10/17 10:00:42;;;;;;;20.60;6.40;;;;;;;11.33;70.49;100796.83;113386;1197;25144;-62
2021/10/17 10:03:19;;;;;;;19.00;5.10;;;;;;;11.30;70.59;100795.44;113271;1190;24091;-60
2021/10/17 10:05:50;;;;;;;20.60;6.40;;;;;;;11.26;70.04;100794.87;113372;1190;24053;-61
2021/10/17 10:08:22;;;;;;;22.50;6.40;;;;;;;11.24;70.69;100796.14;113227;1190;22442;-62
2021/10/17 10:10:54;;;;;;;17.40;6.50;;;;;;;11.25;70.46;100798.81;113226;1190;22439;-63
2021/10/17 10:13:28;;;;;;;16.10;5.20;;;;;;;11.24;70.46;100795.64;113407;1197;23768;-59
2021/10/17 10:15:59;;;;;;;22.00;8.30;;;;;;;11.25;70.62;100791.14;113203;1190;22414;-61
2021/10/17 10:18:32;;;;;;;21.40;7.80;;;;;;;11.28;70.87;100789.08;113391;1193;22602;-62
2021/10/17 10:21:03;;;;;;;19.60;6.20;;;;;;;11.31;70.53;100791.48;113345;1190;22461;-60
2021/10/17 10:23:36;;;;;;;22.20;6.30;;;;;;;11.31;70.23;100792.34;113355;1197;25334;-62
2021/10/17 10:26:07;;;;;;;17.40;5.40;;;;;;;11.31;69.44;100792.45;113464;1192;22437;-61
2021/10/17 10:28:41;;;;;;;17.40;6.30;;;;;;;11.30;69.05;100789.67;113407;1197;22420;-61
2021/10/17 10:31:45;;;;;;;18.80;6.20;;;;;;;11.28;68.92;100788.20;113510;1190;25350;-61
2021/10/17 10:34:44;;;;;;;19.60;6.00;;;;;;;11.27;69.22;100789.61;113508;1190;24041;-60
2021/10/17 10:37:20;;;;;;;20.90;7.30;;;;;;;11.28;69.22;100787.61;113367;1197;22440;-61
2021/10/17 10:40:24;;;;;;;20.90;7.90;;;;;;;11.28;69.74;100786.28;113414;1197;22460;-61
2021/10/17 10:42:55;;;;;;;18.90;6.60;;;;;;;11.28;69.44;100785.88;113340;1193;22455;-63
2021/10/17 10:45:34;;;;;;;19.20;6.40;;;;;;;11.27;69.42;100782.10;113545;1190;22445;-61
2021/10/17 10:48:25;;;;;;;20.50;5.80;;;;;;;11.31;69.30;100783.36;113735;1174;24054;-62
2021/10/17 10:50:58;;;;;;;16.10;4.40;;;;;;;11.35;68.98;100783.89;113386;1197;25003;-60
2021/10/17 10:53:47;;;;;;;14.00;4.40;;;;;;;11.37;68.37;100787.02;113530;1197;25130;-62
2021/10/17 10:56:48;;;;;;;17.00;4.60;;;;;;;11.39;67.90;100788.85;113522;1197;25225;-62
2021/10/17 10:59:24;;;;;;;14.80;4.60;;;;;;;11.39;67.31;100789.82;113578;1190;25115;-62
2021/10/17 11:02:14;;;;;;;14.20;3.80;;;;;;;11.38;67.24;100786.73;113420;1197;23654;-62
2021/10/17 11:05:03;;;;;;;14.50;3.60;;;;;;;11.38;67.34;100783.98;113472;1197;25187;-62
2021/10/17 11:07:37;;;;;;;15.90;4.00;;;;;;;11.39;67.43;100784.41;113370;1197;22450;-61
2021/10/17 11:10:43;;;;;;;15.60;4.30;;;;;;;11.40;66.99;100787.08;113533;1197;22616;-62
2021/10/17 11:13:30;;;;;;;15.40;3.10;;;;;;;11.42;66.67;100787.33;113346;1197;25062;-62
2021/10/17 11:16:01;;;;;;;16.40;3.90;;;;;;;11.42;66.97;100785.89;113290;1197;23096;-60
2021/10/17 11:18:36;;;;;;;17.50;4.20;;;;;;;11.42;66.60;100784.65;113557;1197;22514;-60
2021/10/17 11:21:09;;;;;;;15.90;3.10;;;;;;;11.43;66.51;100785.73;113386;1197;24128;-61
2021/10/17 11:23:41;;;;;;;11.60;2.90;;;;;;;11.45;66.44;100784.36;113802;1190;23728;-62
2021/10/17 11:26:15;;;;;;;15.60;2.20;;;;;;;11.46;65.74;100781.06;113390;1197;25026;-59
2021/10/17 11:28:52;;;;;;;10.60;2.10;;;;;;;11.46;65.76;100779.85;113287;1197;23090;-60
2021/10/17 11:31:25;;;;;;;13.90;1.90;;;;;;;11.47;65.60;100777.23;112949;1197;22453;-59
2021/10/17 11:33:57;;;;;;;11.80;2.00;;;;;;;11.49;65.42;100775.90;112942;1197;22436;-61